createdAt,value
2023-05-10T00:00:35.756Z,15.13
2023-05-10T00:02:37.810Z,14.95
2023-05-10T00:04:39.689Z,15.00
2023-05-10T00:06:41.598Z,14.92
2023-05-10T00:08:43.418Z,15.12
2023-05-10T00:10:45.366Z,15.08
2023-05-10T00:12:47.278Z,15.14
2023-05-10T00:14:51.717Z,15.12
2023-05-10T00:16:53.649Z,15.16
2023-05-10T00:18:55.798Z,15.18
2023-05-10T00:20:57.696Z,15.22
2023-05-10T00:22:59.468Z,15.28
2023-05-10T00:25:01.433Z,15.28
2023-05-10T00:27:05.168Z,15.19
2023-05-10T00:29:06.897Z,15.04
2023-05-10T00:31:08.854Z,15.10
2023-05-10T00:33:10.888Z,15.17
2023-05-10T00:35:13.020Z,15.18
2023-05-10T00:37:15.089Z,15.15
2023-05-10T00:39:16.988Z,15.14
2023-05-10T00:41:18.918Z,15.10
2023-05-10T00:43:20.860Z,15.12
2023-05-10T00:45:22.807Z,15.22
2023-05-10T00:47:25.052Z,15.21
2023-05-10T00:49:27.111Z,15.25
2023-05-10T00:51:31.808Z,15.24
2023-05-10T00:53:39.572Z,15.26
2023-05-10T00:55:41.612Z,15.28
2023-05-10T00:57:44.394Z,15.30
2023-05-10T00:59:47.308Z,15.33
2023-05-10T01:01:49.322Z,15.33
2023-05-10T01:03:52.088Z,15.37
2023-05-10T01:05:53.972Z,15.36
2023-05-10T01:07:55.881Z,15.38
2023-05-10T01:09:58.659Z,15.23
2023-05-10T01:12:02.155Z,15.35
2023-05-10T01:14:04.740Z,15.36
2023-05-10T01:16:08.520Z,15.38
2023-05-10T01:18:10.603Z,15.23
2023-05-10T01:20:13.958Z,15.35
2023-05-10T01:22:26.036Z,15.37
2023-05-10T01:24:47.092Z,15.37
2023-05-10T01:26:59.002Z,15.33
2023-05-10T01:29:11.419Z,15.28
2023-05-10T01:31:33.102Z,15.31
2023-05-10T01:33:53.285Z,15.38
2023-05-10T01:36:01.986Z,15.24
2023-05-10T01:38:23.162Z,15.29
2023-05-10T01:40:34.444Z,15.34
2023-05-10T01:42:49.072Z,15.26
2023-05-10T01:45:08.208Z,15.30
2023-05-10T01:47:11.566Z,15.21
2023-05-10T01:49:25.077Z,15.29
2023-05-10T01:51:32.467Z,15.33
2023-05-10T01:53:40.198Z,15.30
2023-05-10T01:55:48.657Z,15.23
2023-05-10T01:57:57.632Z,15.31
2023-05-10T02:00:00.475Z,15.22
2023-05-10T02:02:03.593Z,15.26
2023-05-10T02:04:07.472Z,15.26
2023-05-10T02:06:11.522Z,15.24
2023-05-10T02:08:15.688Z,15.21
2023-05-10T02:10:19.198Z,15.23
2023-05-10T02:12:22.197Z,15.31
2023-05-10T02:14:25.560Z,15.32
2023-05-10T02:16:28.406Z,15.35
2023-05-10T02:18:32.214Z,15.34
2023-05-10T02:20:36.127Z,15.36
2023-05-10T02:22:39.813Z,15.37
2023-05-10T02:24:43.196Z,15.39
2023-05-10T02:26:46.352Z,15.30
2023-05-10T02:28:50.350Z,15.25
2023-05-10T02:30:53.377Z,15.25
2023-05-10T02:32:56.054Z,15.21
2023-05-10T02:34:58.435Z,15.22
2023-05-10T02:37:00.862Z,15.26
2023-05-10T02:39:05.983Z,15.24
2023-05-10T02:41:09.666Z,15.24
2023-05-10T02:43:15.405Z,15.24
2023-05-10T02:45:22.933Z,15.32
2023-05-10T02:47:24.904Z,15.28
2023-05-10T02:49:26.782Z,15.29
2023-05-10T02:51:34.786Z,15.29
2023-05-10T02:53:42.099Z,15.31
2023-05-10T02:55:48.713Z,15.30
2023-05-10T02:57:56.519Z,15.28
2023-05-10T02:59:58.690Z,15.28
2023-05-10T03:02:03.157Z,15.25
2023-05-10T03:04:05.580Z,15.26
2023-05-10T03:06:07.570Z,15.27
2023-05-10T03:08:09.843Z,15.25
2023-05-10T03:10:13.173Z,15.25
2023-05-10T03:12:34.799Z,15.25
2023-05-10T03:14:47.000Z,15.22
2023-05-10T03:17:03.575Z,15.18
2023-05-10T03:19:22.120Z,15.18
2023-05-10T03:21:32.051Z,15.13
2023-05-10T03:23:42.929Z,15.12
2023-05-10T03:25:45.308Z,14.99
2023-05-10T03:27:48.051Z,15.07
2023-05-10T03:29:52.083Z,15.04
2023-05-10T03:31:54.026Z,14.96
2023-05-10T03:33:56.114Z,14.97
2023-05-10T03:35:58.182Z,15.02
2023-05-10T03:38:00.234Z,14.97
2023-05-10T03:40:02.939Z,15.00
2023-05-10T03:42:05.058Z,15.00
2023-05-10T03:44:06.925Z,15.07
2023-05-10T03:46:08.754Z,14.99
2023-05-10T03:48:10.626Z,14.99
2023-05-10T03:50:15.185Z,15.05
2023-05-10T03:52:17.651Z,14.98
2023-05-10T03:54:19.570Z,14.99
2023-05-10T03:56:21.971Z,14.82
2023-05-10T03:58:23.943Z,14.87
2023-05-10T04:00:26.138Z,14.71
2023-05-10T04:02:28.257Z,14.81
2023-05-10T04:04:30.180Z,14.83
2023-05-10T04:06:32.130Z,14.83
2023-05-10T04:08:34.022Z,14.62
2023-05-10T04:10:36.055Z,14.69
2023-05-10T04:12:37.862Z,14.78
2023-05-10T04:14:39.740Z,14.72
2023-05-10T04:16:41.681Z,14.79
2023-05-10T04:18:43.583Z,14.75
2023-05-10T04:20:45.303Z,14.68
2023-05-10T04:22:47.286Z,14.74
2023-05-10T04:24:49.335Z,14.72
2023-05-10T04:26:51.255Z,14.67
2023-05-10T04:28:53.158Z,14.66
2023-05-10T04:30:54.986Z,14.65
2023-05-10T04:32:56.921Z,14.48
2023-05-10T04:34:58.823Z,14.47
2023-05-10T04:37:00.839Z,14.51
2023-05-10T04:39:04.816Z,14.49
2023-05-10T04:41:09.469Z,14.43
2023-05-10T04:43:11.273Z,14.47
2023-05-10T04:45:13.380Z,14.42
2023-05-10T04:47:15.202Z,14.24
2023-05-10T04:49:20.368Z,14.11
2023-05-10T04:51:25.562Z,14.25
2023-05-10T04:53:27.604Z,14.22
2023-05-10T04:55:32.155Z,14.16
2023-05-10T04:57:39.160Z,14.22
2023-05-10T04:59:40.972Z,14.26
2023-05-10T05:01:43.127Z,14.34
2023-05-10T05:03:45.341Z,14.38
2023-05-10T05:05:49.636Z,14.39
2023-05-10T05:07:51.901Z,14.25
2023-05-10T05:09:53.804Z,14.11
2023-05-10T05:11:55.686Z,14.14
2023-05-10T05:13:57.649Z,14.16
2023-05-10T05:16:02.484Z,14.14
2023-05-10T05:18:04.595Z,14.15
2023-05-10T05:20:07.391Z,13.90
2023-05-10T05:22:11.552Z,13.91
2023-05-10T05:24:13.816Z,13.67
2023-05-10T05:26:16.249Z,13.80
2023-05-10T05:28:18.141Z,13.83
2023-05-10T05:30:20.250Z,13.93
2023-05-10T05:32:22.839Z,13.67
2023-05-10T05:34:25.413Z,13.82
2023-05-10T05:36:27.413Z,13.79
2023-05-10T05:38:29.542Z,13.77
2023-05-10T05:40:31.438Z,13.64
2023-05-10T05:42:33.860Z,13.71
2023-05-10T05:44:35.878Z,13.69
2023-05-10T05:46:37.656Z,13.80
2023-05-10T05:48:39.637Z,13.85
2023-05-10T05:50:41.539Z,13.86
2023-05-10T05:52:43.458Z,13.94
2023-05-10T05:54:47.746Z,13.99
2023-05-10T05:56:49.655Z,13.99
2023-05-10T05:58:52.458Z,14.08
2023-05-10T06:00:54.300Z,14.11
2023-05-10T06:02:56.471Z,14.15
2023-05-10T06:04:58.770Z,14.05
2023-05-10T06:07:00.597Z,14.13
2023-05-10T06:09:02.759Z,14.15
2023-05-10T06:11:05.337Z,14.09
2023-05-10T06:13:07.488Z,14.15
2023-05-10T06:15:10.464Z,14.20
2023-05-10T06:17:12.278Z,14.22
2023-05-10T06:19:14.238Z,14.30
2023-05-10T06:21:17.377Z,14.36
2023-05-10T06:23:20.041Z,14.36
2023-05-10T06:25:22.434Z,14.35
2023-05-10T06:27:24.253Z,14.41
2023-05-10T06:29:26.290Z,14.45
2023-05-10T06:31:28.260Z,14.41
2023-05-10T06:33:35.411Z,14.42
2023-05-10T06:35:37.848Z,14.45
2023-05-10T06:37:40.755Z,14.49
2023-05-10T06:39:42.644Z,14.46
2023-05-10T06:41:44.539Z,14.52
2023-05-10T06:43:46.615Z,14.52
2023-05-10T06:45:49.840Z,14.58
2023-05-10T06:47:51.928Z,14.65
2023-05-10T06:49:53.821Z,14.67
2023-05-10T06:51:57.416Z,14.59
2023-05-10T06:53:59.242Z,14.63
2023-05-10T06:56:01.146Z,14.73
2023-05-10T06:58:03.297Z,14.80
2023-05-10T07:00:06.496Z,14.54
2023-05-10T07:02:08.682Z,14.70
2023-05-10T07:04:10.533Z,14.64
2023-05-10T07:06:21.775Z,14.62
2023-05-10T07:08:33.279Z,14.58
2023-05-10T07:10:35.262Z,14.70
2023-05-10T07:12:37.288Z,14.61
2023-05-10T07:14:39.168Z,14.72
2023-05-10T07:16:41.082Z,14.78
2023-05-10T07:18:43.069Z,14.81
2023-05-10T07:20:45.058Z,14.85
2023-05-10T07:22:47.021Z,14.87
2023-05-10T07:24:49.035Z,14.87
2023-05-10T07:26:51.228Z,14.93
2023-05-10T07:28:53.060Z,14.74
2023-05-10T07:30:55.025Z,14.85
2023-05-10T07:32:57.057Z,14.76
2023-05-10T07:34:59.100Z,14.90
2023-05-10T07:37:01.575Z,14.89
2023-05-10T07:39:03.617Z,14.92
2023-05-10T07:41:05.479Z,15.03
2023-05-10T07:43:07.606Z,15.06
2023-05-10T07:45:10.299Z,15.12
2023-05-10T07:47:12.822Z,15.05
2023-05-10T07:49:14.825Z,15.22
2023-05-10T07:51:16.886Z,15.21
2023-05-10T07:53:19.853Z,15.26
2023-05-10T07:55:22.616Z,15.23
2023-05-10T07:57:24.682Z,15.17
2023-05-10T07:59:26.616Z,15.02
2023-05-10T08:01:36.093Z,15.23
2023-05-10T08:03:38.425Z,15.19
2023-05-10T08:05:40.387Z,15.35
2023-05-10T08:07:43.616Z,15.37
2023-05-10T08:09:45.656Z,15.16
2023-05-10T08:11:47.708Z,15.34
2023-05-10T08:13:51.261Z,15.19
2023-05-10T08:15:54.366Z,15.24
2023-05-10T08:17:56.275Z,15.30
2023-05-10T08:19:58.310Z,15.45
2023-05-10T08:22:00.251Z,15.49
2023-05-10T08:24:02.135Z,15.56
2023-05-10T08:26:04.375Z,15.67
2023-05-10T08:28:06.441Z,15.68
2023-05-10T08:30:09.652Z,15.74
2023-05-10T08:32:11.687Z,15.78
2023-05-10T08:34:16.241Z,15.56
2023-05-10T08:36:22.707Z,15.67
2023-05-10T08:38:24.752Z,15.63
2023-05-10T08:40:27.915Z,15.69
2023-05-10T08:42:32.825Z,15.83
2023-05-10T08:44:37.410Z,15.86
2023-05-10T08:46:45.228Z,15.87
2023-05-10T08:48:50.579Z,15.87
2023-05-10T08:50:56.225Z,15.94
2023-05-10T08:53:04.341Z,15.88
2023-05-10T08:55:06.641Z,16.01
2023-05-10T08:57:12.568Z,16.02
2023-05-10T08:59:15.402Z,16.03
2023-05-10T09:01:19.570Z,16.12
2023-05-10T09:03:21.669Z,15.94
2023-05-10T09:05:24.005Z,16.13
2023-05-10T09:07:26.855Z,16.26
2023-05-10T09:09:31.362Z,15.98
2023-05-10T09:11:33.815Z,16.24
2023-05-10T09:13:40.087Z,16.25
2023-05-10T09:15:42.370Z,15.85
2023-05-10T09:17:45.900Z,16.20
2023-05-10T09:19:48.080Z,16.30
2023-05-10T09:21:50.870Z,16.34
2023-05-10T09:23:55.572Z,16.57
2023-05-10T09:26:08.292Z,16.52
2023-05-10T09:28:10.798Z,16.62
2023-05-10T09:30:24.227Z,16.70
2023-05-10T09:32:46.380Z,16.68
2023-05-10T09:34:51.268Z,16.96
2023-05-10T09:36:58.941Z,16.82
2023-05-10T09:39:01.348Z,17.12
2023-05-10T09:41:03.805Z,17.09
2023-05-10T09:43:08.740Z,17.25
2023-05-10T09:45:11.589Z,17.37
2023-05-10T09:47:20.171Z,17.67
2023-05-10T09:49:23.327Z,17.75
2023-05-10T09:51:26.368Z,17.85
2023-05-10T09:53:28.397Z,18.02
2023-05-10T09:55:42.659Z,18.23
2023-05-10T09:57:44.852Z,18.37
2023-05-10T09:59:46.855Z,17.99
2023-05-10T10:01:52.520Z,18.18
2023-05-10T10:03:54.601Z,18.03
2023-05-10T10:05:57.173Z,18.29
2023-05-10T10:08:00.057Z,18.42
2023-05-10T10:10:02.276Z,18.56
2023-05-10T10:12:05.877Z,18.68
2023-05-10T10:14:07.915Z,18.69
2023-05-10T10:16:10.517Z,18.85
2023-05-10T10:18:16.749Z,19.04
2023-05-10T10:20:19.824Z,19.20
2023-05-10T10:22:22.008Z,19.26
2023-05-10T10:24:24.061Z,19.40
2023-05-10T10:26:26.562Z,19.50
2023-05-10T10:28:34.444Z,19.48
2023-05-10T10:30:49.745Z,19.49
2023-05-10T10:33:13.156Z,19.39
2023-05-10T10:35:19.195Z,19.65
2023-05-10T10:37:21.671Z,19.89
2023-05-10T10:39:26.483Z,19.97
2023-05-10T10:41:39.901Z,19.98
2023-05-10T10:43:47.252Z,20.10
2023-05-10T10:46:14.424Z,20.41
2023-05-10T10:48:24.783Z,20.62
2023-05-10T10:50:26.971Z,20.46
2023-05-10T10:52:35.231Z,20.46
2023-05-10T10:54:37.184Z,20.61
2023-05-10T10:56:39.448Z,20.78
2023-05-10T10:58:42.072Z,20.69
2023-05-10T11:00:46.561Z,20.68
2023-05-10T11:02:50.875Z,20.68
2023-05-10T11:04:52.863Z,20.29
2023-05-10T11:07:18.858Z,20.39
2023-05-10T11:09:21.855Z,20.58
2023-05-10T11:11:24.157Z,20.74
2023-05-10T11:13:39.520Z,20.68
2023-05-10T11:15:51.326Z,20.91
2023-05-10T11:17:53.742Z,20.89
2023-05-10T11:20:10.435Z,20.95
2023-05-10T11:22:12.854Z,21.11
2023-05-10T11:24:17.204Z,21.16
2023-05-10T11:26:19.947Z,21.31
2023-05-10T11:28:21.967Z,21.38
2023-05-10T11:30:24.039Z,21.24
2023-05-10T11:32:26.137Z,21.12
2023-05-10T11:34:31.602Z,21.25
2023-05-10T11:36:35.886Z,21.20
2023-05-10T11:38:37.811Z,20.97
2023-05-10T11:40:41.001Z,21.09
2023-05-10T11:42:42.972Z,21.04
2023-05-10T11:44:48.166Z,21.16
2023-05-10T11:46:50.737Z,21.31
2023-05-10T11:48:54.482Z,21.19
2023-05-10T11:50:58.223Z,20.74
2023-05-10T11:53:00.019Z,21.18
2023-05-10T11:55:02.276Z,21.35
2023-05-10T11:57:04.926Z,21.42
2023-05-10T11:59:06.938Z,21.44
2023-05-10T12:01:10.457Z,21.67
2023-05-10T12:03:12.838Z,21.57
2023-05-10T12:05:15.089Z,21.68
2023-05-10T12:07:18.308Z,21.81
2023-05-10T12:09:28.272Z,21.74
2023-05-10T12:11:45.041Z,21.41
2023-05-10T12:13:48.331Z,21.54
2023-05-10T12:15:50.214Z,21.14
2023-05-10T12:17:52.784Z,21.31
2023-05-10T12:19:54.961Z,21.25
2023-05-10T12:21:56.871Z,21.09
2023-05-10T12:24:04.476Z,20.91
2023-05-10T12:26:07.247Z,20.84
2023-05-10T12:28:10.834Z,20.63
2023-05-10T12:30:13.870Z,20.60
2023-05-10T12:32:15.877Z,20.51
2023-05-10T12:34:34.005Z,20.49
2023-05-10T12:36:39.800Z,20.48
2023-05-10T12:38:44.458Z,20.36
2023-05-10T12:40:51.031Z,20.36
2023-05-10T12:42:53.722Z,20.26
2023-05-10T12:44:58.425Z,20.31
2023-05-10T12:47:00.189Z,20.40
2023-05-10T12:49:08.908Z,20.45
2023-05-10T12:51:13.782Z,20.41
2023-05-10T12:53:16.861Z,20.72
2023-05-10T12:55:18.754Z,20.98
2023-05-10T12:57:22.666Z,21.12
2023-05-10T12:59:24.543Z,21.21
2023-05-10T13:01:26.506Z,21.49
2023-05-10T13:03:28.449Z,21.72
2023-05-10T13:05:34.303Z,21.72
2023-05-10T13:07:36.221Z,21.83
2023-05-10T13:09:39.763Z,21.48
2023-05-10T13:11:44.779Z,21.38
2023-05-10T13:13:46.647Z,21.38
2023-05-10T13:15:48.608Z,20.96
2023-05-10T13:17:50.645Z,20.69
2023-05-10T13:19:52.587Z,20.57
2023-05-10T13:21:54.642Z,20.57
2023-05-10T13:23:56.793Z,20.54
2023-05-10T13:25:58.748Z,20.50
2023-05-10T13:28:00.628Z,20.28
2023-05-10T13:30:04.454Z,20.34
2023-05-10T13:32:06.530Z,20.17
2023-05-10T13:34:08.730Z,20.37
2023-05-10T13:36:10.693Z,20.51
2023-05-10T13:38:13.876Z,20.81
2023-05-10T13:40:16.886Z,20.63
2023-05-10T13:42:19.595Z,20.47
2023-05-10T13:44:21.774Z,20.53
2023-05-10T13:46:27.016Z,20.43
2023-05-10T13:48:28.977Z,20.10
2023-05-10T13:50:33.310Z,19.85
2023-05-10T13:52:35.366Z,19.59
2023-05-10T13:54:38.219Z,19.52
2023-05-10T13:56:40.229Z,19.74
2023-05-10T13:58:42.453Z,19.62
2023-05-10T14:00:44.278Z,19.80
2023-05-10T14:02:46.318Z,19.77
2023-05-10T14:04:48.391Z,19.96
2023-05-10T14:06:50.287Z,20.21
2023-05-10T14:08:52.190Z,20.36
2023-05-10T14:10:54.156Z,20.55
2023-05-10T14:12:55.945Z,20.72
2023-05-10T14:14:59.614Z,20.97
2023-05-10T14:17:01.671Z,21.19
2023-05-10T14:19:04.050Z,21.59
2023-05-10T14:21:06.004Z,21.82
2023-05-10T14:23:10.433Z,22.06
2023-05-10T14:25:14.510Z,22.27
2023-05-10T14:27:17.166Z,22.24
2023-05-10T14:29:19.899Z,22.24
2023-05-10T14:31:21.997Z,22.48
2023-05-10T14:33:23.941Z,22.68
2023-05-10T14:35:26.231Z,23.22
2023-05-10T14:37:28.156Z,23.36
2023-05-10T14:39:32.074Z,23.72
2023-05-10T14:41:39.071Z,23.81
2023-05-10T14:43:41.844Z,23.63
2023-05-10T14:45:44.102Z,23.95
2023-05-10T14:47:46.067Z,23.95
2023-05-10T14:49:48.173Z,23.26
2023-05-10T14:51:50.238Z,23.24
2023-05-10T14:53:52.152Z,23.00
2023-05-10T14:55:54.258Z,22.32
2023-05-10T14:57:57.037Z,21.83
2023-05-10T15:00:04.167Z,22.09
2023-05-10T15:02:10.152Z,21.66
2023-05-10T15:04:14.586Z,21.71
2023-05-10T15:06:17.694Z,21.55
2023-05-10T15:08:19.797Z,21.22
2023-05-10T15:10:21.843Z,21.33
2023-05-10T15:12:23.890Z,21.40
2023-05-10T15:14:26.058Z,21.83
2023-05-10T15:16:28.100Z,22.21
2023-05-10T15:18:30.230Z,22.42
2023-05-10T15:20:32.071Z,22.57
2023-05-10T15:22:34.463Z,22.67
2023-05-10T15:24:36.509Z,22.19
2023-05-10T15:26:38.530Z,22.51
2023-05-10T15:28:40.565Z,22.51
2023-05-10T15:30:42.557Z,22.45
2023-05-10T15:32:44.662Z,22.84
2023-05-10T15:34:50.062Z,22.98
2023-05-10T15:36:52.441Z,22.97
2023-05-10T15:38:56.154Z,22.67
2023-05-10T15:40:59.684Z,22.98
2023-05-10T15:43:02.163Z,23.00
2023-05-10T15:45:08.448Z,22.99
2023-05-10T15:47:11.125Z,23.09
2023-05-10T15:49:13.953Z,23.35
2023-05-10T15:51:16.636Z,23.59
2023-05-10T15:53:19.223Z,23.72
2023-05-10T15:55:21.453Z,23.61
2023-05-10T15:57:23.949Z,23.57
2023-05-10T15:59:26.577Z,23.40
2023-05-10T16:01:29.542Z,23.24
2023-05-10T16:03:33.536Z,22.82
2023-05-10T16:05:37.393Z,22.64
2023-05-10T16:07:42.029Z,22.68
2023-05-10T16:09:44.706Z,22.35
2023-05-10T16:11:48.235Z,22.35
2023-05-10T16:13:50.834Z,22.08
2023-05-10T16:15:53.968Z,21.61
2023-05-10T16:17:57.125Z,21.46
2023-05-10T16:19:59.552Z,21.41
2023-05-10T16:22:02.044Z,20.36
2023-05-10T16:24:05.320Z,20.82
2023-05-10T16:26:08.467Z,21.11
2023-05-10T16:28:11.169Z,21.28
2023-05-10T16:30:15.590Z,21.41
2023-05-10T16:32:18.297Z,21.63
2023-05-10T16:34:24.569Z,21.71
2023-05-10T16:36:27.546Z,21.70
2023-05-10T16:38:30.299Z,21.52
2023-05-10T16:40:33.455Z,20.78
2023-05-10T16:42:36.018Z,20.19
2023-05-10T16:44:41.426Z,19.78
2023-05-10T16:46:44.667Z,19.63
2023-05-10T16:48:47.472Z,19.50
2023-05-10T16:50:50.255Z,19.45
2023-05-10T16:52:52.870Z,19.29
2023-05-10T16:54:56.150Z,18.86
2023-05-10T16:56:59.191Z,18.85
2023-05-10T16:59:02.331Z,18.95
2023-05-10T17:01:05.583Z,18.85
2023-05-10T17:03:10.745Z,18.63
2023-05-10T17:05:13.944Z,18.70
2023-05-10T17:07:17.079Z,18.70
2023-05-10T17:09:21.056Z,18.64
2023-05-10T17:11:23.649Z,18.43
2023-05-10T17:13:25.888Z,18.32
2023-05-10T17:15:28.235Z,18.06
2023-05-10T17:17:30.487Z,18.16
2023-05-10T17:19:33.355Z,17.65
2023-05-10T17:21:35.658Z,17.92
2023-05-10T17:23:38.029Z,18.01
2023-05-10T17:25:43.225Z,17.96
2023-05-10T17:27:45.715Z,17.51
2023-05-10T17:29:48.203Z,17.53
2023-05-10T17:31:50.773Z,17.71
2023-05-10T17:33:53.235Z,17.74
2023-05-10T17:35:56.888Z,17.72
2023-05-10T17:37:59.238Z,17.79
2023-05-10T17:40:01.800Z,17.86
2023-05-10T17:42:04.372Z,17.79
2023-05-10T17:44:06.922Z,17.85
2023-05-10T17:46:09.715Z,17.94
2023-05-10T17:48:12.947Z,17.86
2023-05-10T17:50:16.151Z,17.59
2023-05-10T17:52:18.309Z,17.60
2023-05-10T17:54:20.761Z,17.22
2023-05-10T17:56:25.634Z,17.41
2023-05-10T17:58:28.842Z,17.18
2023-05-10T18:00:31.464Z,17.26
2023-05-10T18:02:33.976Z,17.29
2023-05-10T18:04:36.551Z,17.20
2023-05-10T18:06:40.860Z,17.43
2023-05-10T18:08:46.311Z,17.44
2023-05-10T18:10:51.711Z,17.15
2023-05-10T18:12:54.977Z,17.28
2023-05-10T18:14:57.548Z,17.01
2023-05-10T18:17:00.069Z,17.00
2023-05-10T18:19:02.442Z,16.94
2023-05-10T18:21:04.914Z,17.17
2023-05-10T18:23:07.716Z,17.20
2023-05-10T18:25:10.722Z,17.01
2023-05-10T18:27:13.023Z,16.92
2023-05-10T18:29:15.652Z,17.07
2023-05-10T18:31:18.058Z,17.02
2023-05-10T18:33:20.425Z,17.12
2023-05-10T18:35:22.966Z,16.94
2023-05-10T18:37:25.392Z,16.96
2023-05-10T18:39:27.528Z,17.05
2023-05-10T18:41:29.699Z,16.99
2023-05-10T18:43:31.683Z,16.98
2023-05-10T18:45:34.113Z,17.00
2023-05-10T18:47:36.254Z,17.17
2023-05-10T18:49:39.080Z,17.22
2023-05-10T18:51:41.236Z,17.42
2023-05-10T18:53:43.557Z,17.39
2023-05-10T18:55:46.642Z,17.45
2023-05-10T18:57:49.046Z,17.36
2023-05-10T18:59:51.369Z,17.34
2023-05-10T19:01:55.065Z,17.24
2023-05-10T19:03:59.269Z,17.31
2023-05-10T19:06:01.293Z,17.39
2023-05-10T19:08:03.352Z,17.38
2023-05-10T19:10:06.343Z,17.39
2023-05-10T19:12:09.062Z,17.38
2023-05-10T19:14:11.206Z,17.34
2023-05-10T19:16:17.175Z,17.52
2023-05-10T19:18:19.524Z,17.60
2023-05-10T19:20:22.128Z,17.64
2023-05-10T19:22:36.066Z,17.70
2023-05-10T19:24:47.190Z,17.71
2023-05-10T19:26:49.617Z,17.56
2023-05-10T19:28:53.018Z,17.41
2023-05-10T19:30:55.628Z,17.37
2023-05-10T19:32:58.453Z,17.43
2023-05-10T19:35:00.568Z,17.52
2023-05-10T19:37:02.863Z,17.39
2023-05-10T19:39:05.785Z,17.48
2023-05-10T19:41:07.791Z,17.62
2023-05-10T19:43:09.867Z,17.66
2023-05-10T19:45:16.037Z,17.60
2023-05-10T19:47:18.452Z,17.68
2023-05-10T19:49:20.544Z,17.73
2023-05-10T19:51:22.712Z,17.72
2023-05-10T19:53:24.668Z,17.80
2023-05-10T19:55:29.809Z,17.74
2023-05-10T19:57:31.872Z,17.81
2023-05-10T19:59:33.946Z,17.85
2023-05-10T20:01:36.482Z,17.85
2023-05-10T20:03:38.701Z,17.81
2023-05-10T20:05:40.867Z,17.69
2023-05-10T20:07:42.816Z,17.82
2023-05-10T20:09:44.899Z,17.80
2023-05-10T20:11:46.836Z,17.76
2023-05-10T20:13:48.774Z,17.72
2023-05-10T20:15:50.891Z,17.60
2023-05-10T20:17:53.505Z,17.49
2023-05-10T20:19:55.903Z,17.49
2023-05-10T20:21:59.063Z,17.56
2023-05-10T20:24:02.433Z,17.53
2023-05-10T20:26:05.309Z,17.43
2023-05-10T20:28:08.696Z,17.44
2023-05-10T20:30:11.872Z,17.39
2023-05-10T20:32:13.959Z,17.28
2023-05-10T20:34:16.688Z,17.31
2023-05-10T20:36:19.307Z,17.26
2023-05-10T20:38:21.870Z,17.27
2023-05-10T20:40:26.433Z,17.25
2023-05-10T20:42:28.362Z,17.23
2023-05-10T20:44:31.463Z,17.23
2023-05-10T20:46:34.328Z,17.21
2023-05-10T20:48:36.376Z,17.07
2023-05-10T20:50:38.375Z,17.03
2023-05-10T20:52:40.422Z,17.05
2023-05-10T20:54:42.397Z,16.99
2023-05-10T20:56:44.412Z,16.92
2023-05-10T20:58:46.655Z,16.95
2023-05-10T21:00:48.690Z,16.98
2023-05-10T21:02:50.916Z,16.94
2023-05-10T21:04:53.646Z,16.98
2023-05-10T21:06:57.164Z,16.89
2023-05-10T21:09:02.105Z,16.85
2023-05-10T21:11:05.815Z,16.82
2023-05-10T21:13:08.084Z,16.71
2023-05-10T21:15:10.662Z,16.77
2023-05-10T21:17:13.692Z,16.81
2023-05-10T21:19:17.227Z,16.76
2023-05-10T21:21:19.295Z,16.78
2023-05-10T21:23:21.446Z,16.69
2023-05-10T21:25:23.873Z,16.76
2023-05-10T21:27:25.955Z,16.74
2023-05-10T21:29:28.293Z,16.74
2023-05-10T21:31:30.449Z,16.71
2023-05-10T21:33:32.421Z,16.63
2023-05-10T21:35:34.557Z,16.60
2023-05-10T21:37:36.466Z,16.53
2023-05-10T21:39:38.453Z,16.60
2023-05-10T21:41:40.691Z,16.62
2023-05-10T21:43:43.843Z,16.64
2023-05-10T21:45:46.015Z,16.57
2023-05-10T21:47:48.176Z,16.54
2023-05-10T21:49:50.664Z,16.52
2023-05-10T21:51:52.678Z,16.53
2023-05-10T21:53:54.851Z,16.44
2023-05-10T21:55:56.863Z,16.51
2023-05-10T21:58:01.354Z,16.53
2023-05-10T22:00:03.997Z,16.58
2023-05-10T22:02:06.030Z,16.60
2023-05-10T22:04:08.055Z,16.58
2023-05-10T22:06:10.008Z,16.54
2023-05-10T22:08:12.160Z,16.55
2023-05-10T22:10:14.265Z,16.55
2023-05-10T22:12:16.365Z,16.58
2023-05-10T22:14:18.358Z,16.58
2023-05-10T22:16:20.364Z,16.46
2023-05-10T22:18:22.383Z,16.45
2023-05-10T22:20:24.480Z,16.47
2023-05-10T22:22:27.244Z,16.36
2023-05-10T22:24:29.507Z,16.35
2023-05-10T22:26:31.679Z,16.19
2023-05-10T22:28:33.741Z,16.20
2023-05-10T22:30:35.885Z,16.29
2023-05-10T22:32:38.219Z,16.25
2023-05-10T22:34:40.171Z,16.17
2023-05-10T22:36:42.405Z,16.19
2023-05-10T22:38:44.390Z,16.21
2023-05-10T22:40:46.321Z,16.22
2023-05-10T22:42:48.295Z,16.15
2023-05-10T22:44:50.416Z,16.10
2023-05-10T22:46:52.680Z,16.16
2023-05-10T22:48:55.073Z,16.13
2023-05-10T22:50:57.044Z,16.13
2023-05-10T22:52:58.913Z,16.23
2023-05-10T22:55:00.835Z,16.24
2023-05-10T22:57:02.892Z,16.14
2023-05-10T22:59:05.394Z,16.03
2023-05-10T23:01:07.465Z,15.80
2023-05-10T23:03:09.372Z,15.88
2023-05-10T23:05:11.368Z,15.95
2023-05-10T23:07:13.272Z,16.04
2023-05-10T23:09:15.358Z,16.01
2023-05-10T23:11:17.296Z,15.98
2023-05-10T23:13:21.295Z,15.90
2023-05-10T23:15:23.210Z,15.88
2023-05-10T23:17:25.062Z,15.65
2023-05-10T23:19:26.933Z,15.68
2023-05-10T23:21:31.389Z,15.61
2023-05-10T23:23:34.738Z,15.61
2023-05-10T23:25:37.722Z,15.65
2023-05-10T23:27:39.776Z,15.68
2023-05-10T23:29:44.934Z,15.61
2023-05-10T23:31:51.063Z,15.55
2023-05-10T23:33:54.937Z,15.61
2023-05-10T23:35:59.142Z,15.61
2023-05-10T23:38:01.151Z,15.59
2023-05-10T23:40:03.401Z,15.58
2023-05-10T23:42:05.867Z,15.51
2023-05-10T23:44:07.881Z,15.62
2023-05-10T23:46:09.821Z,15.63
2023-05-10T23:48:11.688Z,15.62
2023-05-10T23:50:13.470Z,15.51
2023-05-10T23:52:15.303Z,15.51
2023-05-10T23:54:17.234Z,15.48
2023-05-10T23:56:19.211Z,15.47
2023-05-10T23:58:22.113Z,15.29
